Time;durP1;ratioP1;P1;durP2;ratioP2;P2;SDS_P1;SDS_P2;PMS_P1;PMS_P2;Temp;Humidity;BMP_temperature;BMP_pressure;BME280_temperature;BME280_humidity;BME280_pressure;Samples;Min_cycle;Max_cycle;Signal;HPM_P1;HPM_P2
2023/04/12 00:01:09;;;;;;;8.23;1.88;;;8.20;99.90;;;;;;4947880;28;20450;-73
2023/04/12 00:03:35;;;;;;;11.60;2.35;;;8.30;99.90;;;;;;4966979;28;20387;-73
2023/04/12 00:06:02;;;;;;;6.28;2.05;;;8.30;99.90;;;;;;4967960;28;20134;-73
2023/04/12 00:08:34;;;;;;;11.38;1.95;;;8.30;99.90;;;;;;4969073;28;20069;-73
2023/04/12 00:11:01;;;;;;;8.15;2.42;;;8.30;99.90;;;;;;4964397;28;20051;-73
2023/04/12 00:13:28;;;;;;;7.82;1.80;;;8.40;99.90;;;;;;4986728;28;20034;-72
2023/04/12 00:15:54;;;;;;;7.18;2.05;;;8.40;99.90;;;;;;4967702;28;20532;-72
2023/04/12 00:18:23;;;;;;;8.50;1.88;;;8.50;99.90;;;;;;4972598;28;20630;-73
2023/04/12 00:20:53;;;;;;;7.25;1.85;;;8.50;99.90;;;;;;4961240;28;20050;-73
2023/04/12 00:23:20;;;;;;;8.23;2.05;;;8.50;99.90;;;;;;4965217;28;20113;-73
2023/04/12 00:25:45;;;;;;;8.57;2.30;;;8.50;99.90;;;;;;4967275;28;20046;-73
2023/04/12 00:28:11;;;;;;;9.68;2.28;;;8.50;99.90;;;;;;4964685;28;20100;-72
2023/04/12 00:30:37;;;;;;;7.55;2.05;;;8.50;99.90;;;;;;4964209;28;20121;-73
2023/04/12 00:33:02;;;;;;;7.88;1.98;;;8.50;99.90;;;;;;4960532;28;20054;-72
2023/04/12 00:35:28;;;;;;;8.57;1.75;;;8.50;99.90;;;;;;4983019;28;20042;-73
2023/04/12 00:37:54;;;;;;;5.15;1.65;;;8.50;99.90;;;;;;4967143;28;20038;-73
2023/04/12 00:40:20;;;;;;;8.38;1.80;;;8.50;99.90;;;;;;4968236;28;20189;-73
2023/04/12 00:42:45;;;;;;;8.10;2.20;;;8.50;99.90;;;;;;4967094;28;20485;-73
2023/04/12 00:45:12;;;;;;;7.32;1.90;;;8.50;99.90;;;;;;4974069;28;20393;-72
2023/04/12 00:47:38;;;;;;;9.00;2.38;;;8.50;99.90;;;;;;4967188;28;20162;-72
2023/04/12 00:50:05;;;;;;;8.73;1.98;;;8.50;99.90;;;;;;4985634;28;20034;-73
2023/04/12 00:52:33;;;;;;;11.90;2.20;;;8.60;99.90;;;;;;4967492;28;20046;-72
2023/04/12 00:55:06;;;;;;;6.03;1.60;;;8.50;99.90;;;;;;4971060;28;20049;-72
2023/04/12 00:57:38;;;;;;;9.70;1.87;;;8.60;99.90;;;;;;4965285;28;20034;-72
2023/04/12 01:00:07;;;;;;;9.15;1.65;;;8.60;99.90;;;;;;4983397;28;20148;-73
2023/04/12 01:02:34;;;;;;;7.20;1.88;;;8.60;99.90;;;;;;4970095;28;20129;-75
2023/04/12 01:05:01;;;;;;;8.38;2.63;;;8.70;99.90;;;;;;4960717;28;20107;-75
2023/04/12 01:07:26;;;;;;;8.43;1.85;;;8.60;99.90;;;;;;4968710;28;20078;-75
2023/04/12 01:10:26;;;;;;;12.15;2.08;;;8.70;99.90;;;;;;4966356;28;20039;-75
2023/04/12 01:13:10;;;;;;;11.18;2.88;;;8.70;99.90;;;;;;4985167;28;20041;-75
2023/04/12 01:15:45;;;;;;;9.52;2.10;;;8.70;99.90;;;;;;4971878;28;20089;-75
2023/04/12 01:18:16;;;;;;;10.63;2.00;;;8.70;99.90;;;;;;4968613;28;20049;-75
2023/04/12 01:20:56;;;;;;;9.82;2.38;;;8.70;99.90;;;;;;4973907;28;20057;-75
2023/04/12 01:23:43;;;;;;;12.55;2.28;;;8.70;99.90;;;;;;4973583;28;20042;-75
2023/04/12 01:26:43;;;;;;;9.55;1.95;;;8.70;99.90;;;;;;4973096;28;20069;-74
2023/04/12 01:29:14;;;;;;;7.90;1.92;;;8.70;99.90;;;;;;4965868;28;20051;-74
2023/04/12 01:31:45;;;;;;;6.47;1.80;;;8.70;99.90;;;;;;4972299;28;20088;-74
2023/04/12 01:34:12;;;;;;;7.57;1.40;;;8.70;99.90;;;;;;4973231;28;20453;-74
2023/04/12 01:36:39;;;;;;;9.70;1.70;;;8.80;99.90;;;;;;4982006;28;20046;-74
2023/04/12 01:39:06;;;;;;;6.63;1.40;;;8.70;99.90;;;;;;4970665;28;20520;-74
2023/04/12 01:41:32;;;;;;;7.22;1.50;;;8.80;99.90;;;;;;4972553;28;20050;-74
2023/04/12 01:43:58;;;;;;;8.05;1.60;;;8.80;99.90;;;;;;4988916;28;20030;-74
2023/04/12 01:46:24;;;;;;;3.92;1.40;;;8.80;99.90;;;;;;4957749;28;20061;-74
2023/04/12 01:48:52;;;;;;;5.88;1.08;;;8.80;99.90;;;;;;4981324;28;20121;-74
2023/04/12 01:51:22;;;;;;;5.97;1.35;;;8.80;99.90;;;;;;4974514;28;20100;-74
2023/04/12 01:53:56;;;;;;;5.72;1.33;;;8.80;99.90;;;;;;4986402;28;20503;-74
2023/04/12 01:56:23;;;;;;;10.68;1.95;;;8.80;99.90;;;;;;4966681;28;20058;-74
2023/04/12 01:58:52;;;;;;;8.65;1.60;;;8.80;99.90;;;;;;4970594;28;20042;-74
2023/04/12 02:01:18;;;;;;;9.45;2.28;;;8.80;99.90;;;;;;4968307;28;20138;-73
2023/04/12 02:03:48;;;;;;;12.52;2.45;;;8.80;99.90;;;;;;4962427;28;20161;-73
2023/04/12 02:06:17;;;;;;;10.85;2.08;;;8.80;99.90;;;;;;4950418;28;20039;-73
2023/04/12 02:08:43;;;;;;;7.90;1.50;;;8.80;99.90;;;;;;4970954;28;20103;-73
2023/04/12 02:11:13;;;;;;;8.05;1.73;;;8.70;99.90;;;;;;4966263;28;20051;-74
2023/04/12 02:13:39;;;;;;;7.88;1.90;;;8.70;99.90;;;;;;4967328;28;20073;-74
2023/04/12 02:16:06;;;;;;;5.88;1.55;;;8.70;99.90;;;;;;4949855;28;20047;-73
2023/04/12 02:18:34;;;;;;;7.97;1.73;;;8.60;99.90;;;;;;4967268;28;20049;-74
2023/04/12 02:21:00;;;;;;;7.43;2.10;;;8.70;99.90;;;;;;4951292;28;20047;-74
2023/04/12 02:23:26;;;;;;;8.52;2.45;;;8.60;99.90;;;;;;4963344;28;20121;-73
2023/04/12 02:25:52;;;;;;;4.53;1.27;;;8.60;99.90;;;;;;4962859;28;20132;-74
2023/04/12 02:28:17;;;;;;;6.65;1.40;;;8.60;99.90;;;;;;4974553;28;20038;-74
2023/04/12 02:30:44;;;;;;;7.38;1.75;;;8.60;99.90;;;;;;4967791;28;20081;-74
2023/04/12 02:33:10;;;;;;;5.68;1.70;;;8.60;99.90;;;;;;4971754;28;20423;-73
2023/04/12 02:35:36;;;;;;;8.20;1.33;;;8.50;99.90;;;;;;4970967;28;20043;-74
2023/04/12 02:38:06;;;;;;;6.78;1.33;;;8.60;99.90;;;;;;4971041;28;20126;-74
2023/04/12 02:40:34;;;;;;;7.63;1.33;;;8.60;99.90;;;;;;4971525;28;20053;-73
2023/04/12 02:43:00;;;;;;;9.02;1.65;;;8.60;99.90;;;;;;4967142;28;20038;-73
2023/04/12 02:45:26;;;;;;;7.55;1.60;;;8.60;99.90;;;;;;4985178;28;20470;-73
2023/04/12 02:47:51;;;;;;;6.80;2.00;;;8.50;99.90;;;;;;4965561;28;20129;-73
2023/04/12 02:50:17;;;;;;;10.38;1.80;;;8.50;99.90;;;;;;4969653;28;20138;-73
2023/04/12 02:52:43;;;;;;;6.05;1.90;;;8.40;99.90;;;;;;4965593;28;20047;-73
2023/04/12 02:55:09;;;;;;;5.65;1.70;;;8.50;99.90;;;;;;4964772;28;20514;-73
2023/04/12 02:57:35;;;;;;;9.70;1.73;;;8.40;99.90;;;;;;4966705;28;20405;-73
2023/04/12 03:00:00;;;;;;;6.93;2.30;;;8.50;99.90;;;;;;4969635;28;20062;-73
2023/04/12 03:02:26;;;;;;;5.85;1.73;;;8.40;99.90;;;;;;4968010;28;20082;-73
2023/04/12 03:04:53;;;;;;;7.07;1.40;;;8.40;99.90;;;;;;4955710;28;20058;-73
2023/04/12 06:11:56;;;;;;;5.68;2.30;;;7.50;99.90;;;;;;3204859;28;22809;-75
2023/04/12 06:14:21;;;;;;;7.50;2.28;;;7.50;99.90;;;;;;4931044;29;20090;-73
2023/04/12 06:16:47;;;;;;;8.93;2.28;;;7.60;99.90;;;;;;4940554;29;20375;-73
2023/04/12 06:19:13;;;;;;;5.35;2.08;;;7.60;99.90;;;;;;4929060;29;20039;-74
2023/04/12 06:21:38;;;;;;;6.22;2.45;;;7.60;99.90;;;;;;4941067;28;20092;-73
2023/04/12 06:24:04;;;;;;;8.05;2.10;;;7.60;99.90;;;;;;4938609;28;20501;-73
2023/04/12 06:26:30;;;;;;;7.38;2.40;;;7.50;99.90;;;;;;4942458;29;20040;-73
2023/04/12 06:28:56;;;;;;;4.97;2.65;;;7.60;99.90;;;;;;4943606;28;20044;-72
2023/04/12 06:31:21;;;;;;;6.30;2.45;;;7.60;99.90;;;;;;4939948;29;20039;-74
2023/04/12 06:33:49;;;;;;;5.53;2.20;;;7.60;99.90;;;;;;4940064;28;20035;-73
2023/04/12 06:36:15;;;;;;;5.40;2.20;;;7.50;99.90;;;;;;4926364;29;20047;-73
2023/04/12 06:38:41;;;;;;;8.52;2.28;;;7.60;99.90;;;;;;4941651;28;20047;-72
2023/04/12 06:41:07;;;;;;;5.22;2.03;;;7.50;99.90;;;;;;4931568;29;20105;-72
2023/04/12 06:43:32;;;;;;;5.28;2.70;;;7.60;99.90;;;;;;4938216;28;20126;-72
2023/04/12 06:46:01;;;;;;;7.82;2.50;;;7.60;99.90;;;;;;4940274;29;20031;-72
2023/04/12 06:48:27;;;;;;;6.80;2.17;;;7.60;99.90;;;;;;4939847;28;20054;-72
2023/04/12 06:50:53;;;;;;;5.13;2.25;;;7.60;99.90;;;;;;4937536;28;20047;-72
2023/04/12 06:53:19;;;;;;;6.20;2.33;;;7.60;99.90;;;;;;4945003;28;20043;-72
2023/04/12 06:55:45;;;;;;;5.97;2.67;;;7.60;99.90;;;;;;4957131;28;20134;-73
2023/04/12 06:58:10;;;;;;;8.13;2.58;;;7.70;99.90;;;;;;4944758;28;20098;-73
2023/04/12 07:00:36;;;;;;;6.18;2.50;;;7.70;99.90;;;;;;4937569;29;20074;-73
2023/04/12 07:03:02;;;;;;;6.82;3.08;;;7.70;99.90;;;;;;4943877;28;20087;-73
2023/04/12 07:05:28;;;;;;;4.95;2.38;;;7.70;99.90;;;;;;4939527;29;20406;-74
2023/04/12 07:07:54;;;;;;;7.68;2.78;;;7.70;99.90;;;;;;4937327;29;20051;-72
2023/04/12 07:10:19;;;;;;;6.82;2.30;;;7.70;99.90;;;;;;4928955;29;20095;-73
2023/04/12 07:12:45;;;;;;;4.88;2.25;;;7.60;99.90;;;;;;4952271;28;20078;-72
2023/04/12 07:15:11;;;;;;;5.70;2.42;;;7.70;99.90;;;;;;4966971;28;20082;-73
2023/04/12 07:17:37;;;;;;;5.20;2.70;;;7.60;99.90;;;;;;4981205;28;20035;-73
2023/04/12 07:20:03;;;;;;;6.97;3.00;;;7.60;99.90;;;;;;4967821;28;20041;-73
2023/04/12 07:22:29;;;;;;;8.98;2.55;;;7.60;99.90;;;;;;4962210;28;20148;-72
2023/04/12 07:24:54;;;;;;;8.32;2.40;;;7.60;99.90;;;;;;4966010;28;20063;-72
2023/04/12 07:27:20;;;;;;;9.82;2.58;;;7.70;99.90;;;;;;4966410;28;20043;-72
2023/04/12 07:29:46;;;;;;;7.35;2.33;;;7.60;99.90;;;;;;4959860;28;20067;-72
2023/04/12 07:32:11;;;;;;;7.53;2.90;;;7.60;99.90;;;;;;4963428;28;20078;-72
2023/04/12 07:34:38;;;;;;;7.57;3.25;;;7.60;99.90;;;;;;4970350;28;20042;-72
2023/04/12 07:37:04;;;;;;;5.63;2.95;;;7.60;99.90;;;;;;4961894;28;20057;-72
2023/04/12 07:39:30;;;;;;;5.85;3.22;;;7.70;99.90;;;;;;4966979;28;20054;-73
2023/04/12 07:41:56;;;;;;;7.07;2.85;;;7.60;99.90;;;;;;4955782;28;20503;-71
2023/04/12 07:44:22;;;;;;;8.05;3.08;;;7.70;99.90;;;;;;4964975;28;20039;-72
2023/04/12 07:46:47;;;;;;;5.25;3.05;;;7.70;99.90;;;;;;4969043;28;20085;-71
2023/04/12 07:49:13;;;;;;;9.85;2.92;;;7.60;99.90;;;;;;4962067;28;20089;-73
2023/04/12 07:51:40;;;;;;;4.60;2.88;;;7.70;99.90;;;;;;4964750;28;20051;-72
2023/04/12 07:54:06;;;;;;;4.63;2.90;;;7.70;99.90;;;;;;4963831;28;20562;-71
2023/04/12 07:56:35;;;;;;;6.00;3.47;;;7.60;99.90;;;;;;4963172;28;20043;-72
2023/04/12 07:59:01;;;;;;;6.57;3.17;;;7.60;99.90;;;;;;4977324;28;20460;-71
2023/04/12 08:01:27;;;;;;;6.15;3.97;;;7.70;99.90;;;;;;4959696;28;20054;-71
2023/04/12 08:03:52;;;;;;;6.10;3.80;;;7.70;99.90;;;;;;4965250;28;20042;-72
2023/04/12 08:06:18;;;;;;;5.40;3.50;;;7.70;99.90;;;;;;4966124;28;20526;-72
2023/04/12 08:08:44;;;;;;;7.30;3.83;;;7.70;99.90;;;;;;4957990;28;20039;-73
2023/04/12 08:11:10;;;;;;;5.88;3.80;;;7.80;99.90;;;;;;4964181;28;20443;-71
2023/04/12 08:13:36;;;;;;;7.10;3.90;;;7.80;99.90;;;;;;4963536;28;20063;-71
2023/04/12 08:16:02;;;;;;;7.40;3.90;;;7.90;99.90;;;;;;4966259;28;20458;-71
2023/04/12 08:18:28;;;;;;;6.32;4.13;;;7.90;99.90;;;;;;4964648;28;20046;-71
2023/04/12 08:20:57;;;;;;;5.05;4.32;;;7.90;99.90;;;;;;4963940;28;20053;-71
2023/04/12 08:23:24;;;;;;;7.43;4.60;;;7.90;99.90;;;;;;4961329;28;20522;-71
2023/04/12 08:25:51;;;;;;;7.55;4.30;;;8.00;99.90;;;;;;4963454;28;20043;-71
2023/04/12 08:28:17;;;;;;;7.97;5.03;;;8.00;99.90;;;;;;4955405;28;20054;-71
2023/04/12 08:30:42;;;;;;;10.27;5.60;;;8.00;99.90;;;;;;4967999;28;20039;-71
2023/04/12 08:33:08;;;;;;;9.40;5.82;;;8.00;99.90;;;;;;4964263;28;20043;-70
2023/04/12 08:35:34;;;;;;;7.47;5.93;;;8.00;99.90;;;;;;4960626;28;20179;-72
2023/04/12 08:38:06;;;;;;;7.75;6.10;;;8.10;99.90;;;;;;4961366;28;20506;-70
2023/04/12 08:40:31;;;;;;;8.10;7.30;;;8.10;99.90;;;;;;4966597;28;20830;-72
2023/04/12 08:43:00;;;;;;;10.00;7.07;;;8.10;99.90;;;;;;4961084;28;20043;-72
2023/04/12 08:45:28;;;;;;;7.13;6.43;;;8.10;99.90;;;;;;4978549;28;20100;-71
2023/04/12 08:47:54;;;;;;;7.57;6.88;;;8.20;99.90;;;;;;4958875;28;20039;-71
2023/04/12 08:50:20;;;;;;;9.52;7.18;;;8.20;99.90;;;;;;4962814;28;20494;-71
2023/04/12 08:52:48;;;;;;;8.05;6.85;;;8.20;99.90;;;;;;4965764;28;20039;-71
2023/04/12 08:55:14;;;;;;;9.20;7.80;;;8.20;99.90;;;;;;4965178;28;20549;-71
2023/04/12 08:57:40;;;;;;;9.35;7.95;;;8.30;99.90;;;;;;4964559;28;20403;-71
2023/04/12 09:00:08;;;;;;;7.93;7.13;;;8.30;99.90;;;;;;4969474;28;20031;-71
2023/04/12 09:02:37;;;;;;;8.18;7.32;;;8.30;99.90;;;;;;4967544;28;20073;-70
2023/04/12 09:05:04;;;;;;;7.90;7.18;;;8.30;99.90;;;;;;4964087;28;20554;-70
2023/04/12 09:07:30;;;;;;;10.52;7.97;;;8.30;99.90;;;;;;4965665;28;20139;-71
2023/04/12 09:09:57;;;;;;;8.93;7.80;;;8.30;99.90;;;;;;4967110;28;20074;-72
2023/04/12 09:12:23;;;;;;;9.35;8.02;;;8.30;99.90;;;;;;4967824;28;20054;-72
2023/04/12 09:15:13;;;;;;;8.63;7.70;;;8.40;99.90;;;;;;4964872;28;20050;-72
2023/04/12 09:17:40;;;;;;;8.00;7.03;;;8.40;99.90;;;;;;4953036;28;20065;-71
2023/04/12 09:20:14;;;;;;;9.13;8.32;;;8.50;99.90;;;;;;4964034;28;20042;-71
2023/04/12 09:22:43;;;;;;;10.13;7.18;;;8.50;99.90;;;;;;4961981;28;20055;-71
2023/04/12 09:25:10;;;;;;;9.40;7.32;;;8.60;99.90;;;;;;4957757;28;20227;-71
2023/04/12 09:27:50;;;;;;;8.57;7.72;;;8.70;99.90;;;;;;4964231;28;20121;-72
2023/04/12 09:30:17;;;;;;;8.75;7.95;;;8.80;99.90;;;;;;4964833;28;20035;-71
2023/04/12 09:32:44;;;;;;;8.65;7.50;;;8.90;99.90;;;;;;4965335;28;20205;-72
2023/04/12 09:35:10;;;;;;;8.90;7.63;;;9.00;99.90;;;;;;4959136;28;20038;-72
2023/04/12 09:37:36;;;;;;;10.15;7.55;;;9.10;99.90;;;;;;4949573;28;20130;-72
2023/04/12 09:40:06;;;;;;;8.68;7.78;;;9.20;99.90;;;;;;4946612;28;20202;-71
2023/04/12 09:42:33;;;;;;;9.05;7.35;;;9.30;99.90;;;;;;4966304;28;20071;-72
2023/04/12 09:45:00;;;;;;;7.65;6.80;;;9.40;99.90;;;;;;4958732;28;20046;-71
2023/04/12 09:47:40;;;;;;;7.78;6.78;;;9.60;99.90;;;;;;4965998;28;20046;-71
2023/04/12 09:50:07;;;;;;;8.73;6.25;;;9.60;99.90;;;;;;4968347;28;20047;-71
2023/04/12 09:52:37;;;;;;;6.80;5.90;;;9.70;99.90;;;;;;4959658;28;20518;-71
2023/04/12 09:55:08;;;;;;;6.28;5.13;;;9.80;99.90;;;;;;4958805;28;20043;-71
2023/04/12 09:57:40;;;;;;;8.52;5.40;;;9.90;99.90;;;;;;4962615;28;20046;-71
2023/04/12 10:00:12;;;;;;;11.60;5.22;;;10.00;99.90;;;;;;4967825;28;20589;-71
2023/04/12 10:02:41;;;;;;;7.28;4.35;;;10.10;99.90;;;;;;4956227;28;20410;-71
2023/04/12 10:05:09;;;;;;;8.43;5.32;;;10.10;99.90;;;;;;4964069;28;20096;-71
2023/04/12 10:07:36;;;;;;;8.95;5.20;;;10.20;99.90;;;;;;4963438;28;20039;-71
2023/04/12 10:10:04;;;;;;;6.20;4.22;;;10.30;99.90;;;;;;4963857;28;20057;-71
2023/04/12 10:12:30;;;;;;;9.13;4.20;;;10.50;99.90;;;;;;4956379;28;20047;-71
2023/04/12 10:14:56;;;;;;;11.35;4.50;;;10.80;99.90;;;;;;4962271;28;20062;-71
2023/04/12 10:17:25;;;;;;;6.55;4.32;;;11.10;99.90;;;;;;4962491;28;20078;-71
2023/04/12 10:19:51;;;;;;;7.63;3.42;;;11.40;99.90;;;;;;4983301;28;20101;-71
2023/04/12 10:22:18;;;;;;;8.82;3.60;;;11.70;99.90;;;;;;4959869;28;20439;-71
2023/04/12 10:24:44;;;;;;;8.20;3.67;;;11.80;99.90;;;;;;4981678;28;20082;-70
2023/04/12 10:27:12;;;;;;;8.95;3.72;;;11.90;99.90;;;;;;4966909;28;20446;-71
2023/04/12 10:29:38;;;;;;;6.95;3.42;;;12.10;99.90;;;;;;4958303;28;20051;-70
2023/04/12 10:32:22;;;;;;;7.40;3.97;;;12.20;99.90;;;;;;4957132;28;20488;-71
2023/04/12 10:35:14;;;;;;;8.13;3.40;;;12.40;99.90;;;;;;4960621;28;20074;-71
2023/04/12 10:38:12;;;;;;;11.63;3.83;;;12.90;99.90;;;;;;4956151;28;20534;-71
2023/04/12 10:40:58;;;;;;;10.20;3.13;;;13.60;99.90;;;;;;4918625;28;20446;-71
2023/04/12 10:43:27;;;;;;;8.27;2.30;;;13.80;99.90;;;;;;4961124;28;20050;-70
2023/04/12 10:45:53;;;;;;;11.55;2.55;;;13.60;99.90;;;;;;4966986;28;20043;-71
2023/04/12 10:48:36;;;;;;;9.18;2.30;;;13.40;99.90;;;;;;4967580;28;20054;-71
2023/04/12 10:51:13;;;;;;;11.13;2.92;;;13.60;99.90;;;;;;4965624;28;20039;-70
2023/04/12 10:53:39;;;;;;;12.98;2.78;;;13.90;99.90;;;;;;4967629;28;20042;-71
2023/04/12 10:56:33;;;;;;;10.00;2.50;;;14.00;99.90;;;;;;4968383;28;20039;-71
2023/04/12 10:58:59;;;;;;;7.72;2.17;;;14.40;99.90;;;;;;4973372;28;20518;-70
2023/04/12 11:01:26;;;;;;;7.43;2.35;;;14.80;99.90;;;;;;4967583;28;20487;-71
2023/04/12 11:04:16;;;;;;;9.63;2.22;;;15.10;99.90;;;;;;4966992;28;20035;-71
2023/04/12 11:06:42;;;;;;;6.15;1.70;;;15.40;99.90;;;;;;4971794;28;20122;-71
2023/04/12 11:09:27;;;;;;;11.32;2.78;;;15.70;99.90;;;;;;4964958;28;20043;-71
2023/04/12 11:12:05;;;;;;;9.77;1.80;;;15.90;99.90;;;;;;4970562;28;20443;-71
2023/04/12 11:14:58;;;;;;;9.80;2.15;;;15.90;99.90;;;;;;4974592;28;20054;-71
2023/04/12 11:17:24;;;;;;;10.45;2.40;;;16.00;99.90;;;;;;4950166;28;20039;-71
2023/04/12 11:19:59;;;;;;;8.48;1.95;;;16.20;99.90;;;;;;4991360;28;20086;-71
2023/04/12 11:22:26;;;;;;;;;;;16.30;99.90;;;;;;4971648;28;20078;-71
2023/04/12 11:24:55;;;;;;;11.38;2.47;;;16.60;99.90;;;;;;4974308;28;19917;-71
2023/04/12 11:27:22;;;;;;;8.48;1.95;;;16.80;99.90;;;;;;4986956;28;20050;-71
2023/04/12 11:29:56;;;;;;;9.05;1.90;;;16.90;99.90;;;;;;4954288;28;20045;-71
2023/04/12 11:32:27;;;;;;;10.82;2.58;;;16.70;99.90;;;;;;4971314;28;20039;-71
2023/04/12 11:34:54;;;;;;;13.27;2.50;;;16.30;99.90;;;;;;4969105;28;20038;-70
2023/04/12 11:37:21;;;;;;;12.00;2.33;;;16.00;99.90;;;;;;4973148;28;20034;-71
2023/04/12 11:39:48;;;;;;;15.02;2.42;;;16.20;99.90;;;;;;4959298;28;20070;-70
2023/04/12 11:42:20;;;;;;;12.52;2.10;;;16.70;99.90;;;;;;4972615;28;20050;-71
2023/04/12 11:44:46;;;;;;;11.23;2.38;;;17.40;99.90;;;;;;4967712;28;20537;-71
2023/04/12 11:47:17;;;;;;;11.48;2.53;;;17.90;99.90;;;;;;4985831;28;20038;-71
2023/04/12 11:49:47;;;;;;;11.55;3.00;;;18.00;99.90;;;;;;4964676;28;20384;-71
2023/04/12 11:52:15;;;;;;;9.52;2.03;;;17.70;99.90;;;;;;4986896;28;20062;-71
2023/04/12 11:54:48;;;;;;;11.43;2.20;;;17.50;99.90;;;;;;4972219;28;20505;-71
2023/04/12 11:57:16;;;;;;;10.90;2.00;;;17.40;99.90;;;;;;4970890;28;20046;-71
2023/04/12 11:59:44;;;;;;;9.77;2.13;;;17.10;99.90;;;;;;4964342;28;20374;-71
2023/04/12 12:02:11;;;;;;;12.32;2.35;;;16.80;99.90;;;;;;4970781;28;20050;-71
2023/04/12 12:04:38;;;;;;;11.65;2.10;;;16.50;99.90;;;;;;4967893;28;20049;-71
2023/04/12 12:07:05;;;;;;;10.90;2.42;;;16.00;99.90;;;;;;4958620;28;20042;-72
2023/04/12 12:09:31;;;;;;;11.40;2.72;;;15.50;99.90;;;;;;4969598;28;20481;-71
2023/04/12 12:11:57;;;;;;;11.65;2.30;;;15.20;99.90;;;;;;4983989;28;20501;-72
2023/04/12 12:14:24;;;;;;;11.13;2.65;;;15.00;99.90;;;;;;4965059;28;20065;-72
2023/04/12 12:16:58;;;;;;;13.80;2.55;;;14.80;99.90;;;;;;4966470;28;20475;-72
2023/04/12 12:19:31;;;;;;;13.93;2.50;;;14.60;99.90;;;;;;4965782;28;20405;-72
2023/04/12 12:22:12;;;;;;;11.10;2.08;;;15.10;99.90;;;;;;4969242;28;20177;-72
2023/04/12 12:24:51;;;;;;;15.88;2.58;;;15.50;99.90;;;;;;4972055;28;20080;-72
2023/04/12 12:27:22;;;;;;;13.57;2.53;;;15.90;99.90;;;;;;4986666;28;20390;-72
2023/04/12 12:29:53;;;;;;;9.48;2.13;;;16.00;99.90;;;;;;4967989;28;20429;-72
2023/04/12 12:32:21;;;;;;;10.38;2.25;;;16.10;99.90;;;;;;4974327;28;20482;-72
2023/04/12 12:34:55;;;;;;;14.02;2.45;;;15.80;99.90;;;;;;4968250;28;20046;-72
2023/04/12 12:37:29;;;;;;;9.80;1.80;;;15.40;99.90;;;;;;4985794;28;20074;-72
2023/04/12 12:40:15;;;;;;;10.20;2.17;;;15.00;99.90;;;;;;4973208;28;20129;-72
2023/04/12 12:42:54;;;;;;;9.38;1.58;;;14.80;99.90;;;;;;4965082;28;20057;-72
2023/04/12 12:45:22;;;;;;;10.23;1.60;;;14.70;99.90;;;;;;4956711;28;20034;-71
2023/04/12 12:47:52;;;;;;;11.52;1.77;;;14.50;99.90;;;;;;4986579;28;20089;-72
2023/04/12 12:50:24;;;;;;;10.10;1.65;;;14.20;99.90;;;;;;4965210;28;20046;-72
2023/04/12 12:52:50;;;;;;;11.00;2.10;;;13.90;99.90;;;;;;4965032;28;20077;-72
2023/04/12 12:55:16;;;;;;;10.65;1.80;;;13.60;99.90;;;;;;4984286;28;20070;-72
2023/04/12 12:57:43;;;;;;;10.02;2.38;;;13.40;99.90;;;;;;4965003;28;20141;-72
2023/04/12 13:00:12;;;;;;;11.07;1.98;;;13.20;99.90;;;;;;4968801;28;20117;-72
2023/04/12 13:02:38;;;;;;;11.52;1.70;;;13.00;99.90;;;;;;4982964;28;20108;-72
2023/04/12 13:05:05;;;;;;;13.48;1.92;;;12.80;99.90;;;;;;4969239;28;20085;-72
2023/04/12 13:07:31;;;;;;;13.90;2.05;;;12.80;99.90;;;;;;4967169;28;20055;-72
2023/04/12 13:09:57;;;;;;;11.73;1.98;;;12.90;99.90;;;;;;4984702;28;20039;-72
2023/04/12 13:12:23;;;;;;;11.07;1.70;;;13.00;99.90;;;;;;4970486;28;20062;-73
2023/04/12 13:14:49;;;;;;;9.90;1.92;;;13.20;99.90;;;;;;4964768;28;20042;-72
2023/04/12 13:17:15;;;;;;;10.95;2.13;;;13.60;99.90;;;;;;4968741;28;20050;-73
2023/04/12 13:19:40;;;;;;;10.05;1.58;;;13.90;99.90;;;;;;4966541;28;20069;-74
2023/04/12 13:22:07;;;;;;;12.93;2.75;;;14.20;99.90;;;;;;4968195;28;20042;-73
2023/04/12 13:24:36;;;;;;;9.57;2.30;;;14.40;99.90;;;;;;4971957;28;20042;-72
2023/04/12 13:27:01;;;;;;;9.13;2.05;;;14.40;99.90;;;;;;4966978;28;20041;-72
2023/04/12 13:29:27;;;;;;;13.00;1.90;;;14.20;99.90;;;;;;4967384;28;20474;-72
2023/04/12 13:31:53;;;;;;;14.18;1.92;;;13.90;99.90;;;;;;4970117;28;20037;-70
2023/04/12 13:34:19;;;;;;;10.88;2.13;;;13.80;99.90;;;;;;4962744;28;20109;-70
2023/04/12 13:36:45;;;;;;;11.35;2.20;;;13.60;99.90;;;;;;4970093;28;20475;-70
2023/04/12 13:39:10;;;;;;;12.63;2.35;;;13.40;99.90;;;;;;4982930;28;20038;-69
2023/04/12 13:41:36;;;;;;;13.23;2.05;;;13.20;99.90;;;;;;4984193;28;20047;-70
2023/04/12 13:44:03;;;;;;;11.10;2.13;;;13.10;99.90;;;;;;4983486;28;20042;-70
2023/04/12 13:46:32;;;;;;;10.60;2.28;;;12.90;99.90;;;;;;4987269;28;20070;-69
2023/04/12 13:48:58;;;;;;;9.95;1.95;;;12.80;99.90;;;;;;4964598;28;20041;-70
2023/04/12 13:51:25;;;;;;;11.98;2.35;;;12.80;99.90;;;;;;4980626;28;20402;-70
2023/04/12 13:53:51;;;;;;;12.70;2.00;;;12.60;99.90;;;;;;4960611;28;20458;-70
2023/04/12 13:56:20;;;;;;;10.25;1.80;;;12.60;99.90;;;;;;4954307;28;20109;-70
2023/04/12 13:58:46;;;;;;;10.90;2.15;;;12.60;99.90;;;;;;4969046;28;20046;-70
2023/04/12 14:01:12;;;;;;;8.77;1.75;;;12.70;99.90;;;;;;4980985;28;20039;-70
2023/04/12 14:03:39;;;;;;;9.40;1.83;;;13.00;99.90;;;;;;4967925;28;20073;-70
2023/04/12 14:06:06;;;;;;;6.78;1.67;;;13.30;99.90;;;;;;4967676;28;20270;-70
2023/04/12 14:08:32;;;;;;;9.05;1.30;;;13.40;99.90;;;;;;4966843;28;20136;-70
2023/04/12 14:10:58;;;;;;;10.02;1.67;;;13.50;99.90;;;;;;4969019;28;20062;-70
2023/04/12 14:13:26;;;;;;;10.55;1.73;;;13.40;99.90;;;;;;4965777;28;20546;-70
2023/04/12 14:15:52;;;;;;;7.70;1.20;;;13.30;99.90;;;;;;4962698;28;20078;-69
2023/04/12 14:18:20;;;;;;;6.55;1.38;;;13.00;99.90;;;;;;4965906;28;21985;-73
2023/04/12 14:20:56;;;;;;;6.07;1.15;;;12.80;99.90;;;;;;4965758;28;20042;-73
2023/04/12 14:23:24;;;;;;;6.32;0.90;;;12.60;99.90;;;;;;4969221;28;20077;-73
2023/04/12 14:25:50;;;;;;;7.22;0.68;;;12.40;99.90;;;;;;4974374;28;20042;-73
2023/04/12 14:28:20;;;;;;;4.97;0.80;;;12.20;99.90;;;;;;4965525;28;20457;-73
2023/04/12 14:30:53;;;;;;;4.03;0.90;;;12.10;99.90;;;;;;4979382;28;20038;-73
2023/04/12 14:33:18;;;;;;;5.90;1.00;;;12.10;99.90;;;;;;4975343;28;20041;-71
2023/04/12 14:35:45;;;;;;;3.55;0.88;;;12.20;99.90;;;;;;4976917;28;20521;-73
2023/04/12 14:38:11;;;;;;;11.45;2.60;;;12.30;99.90;;;;;;4962687;28;20064;-72
2023/04/12 14:40:37;;;;;;;5.00;1.27;;;12.30;99.90;;;;;;4974932;28;20153;-72
2023/04/12 14:43:02;;;;;;;7.40;1.25;;;12.30;99.90;;;;;;4975494;28;20042;-74
2023/04/12 14:45:28;;;;;;;7.43;1.25;;;12.40;99.90;;;;;;4973063;28;20354;-73
2023/04/12 14:47:54;;;;;;;9.13;1.30;;;12.50;99.90;;;;;;4972247;28;20501;-73
2023/04/12 14:50:20;;;;;;;7.95;1.20;;;12.50;99.90;;;;;;4973991;28;20053;-73
2023/04/12 14:52:47;;;;;;;10.25;1.48;;;12.60;99.90;;;;;;4971842;28;20039;-73
2023/04/12 14:55:12;;;;;;;7.57;1.25;;;12.70;99.90;;;;;;4970629;28;20138;-73
2023/04/12 14:57:38;;;;;;;8.50;1.17;;;12.60;99.90;;;;;;4967882;28;20099;-73
2023/04/12 15:00:12;;;;;;;5.88;1.13;;;12.60;99.90;;;;;;4988130;28;20062;-73
2023/04/12 15:02:39;;;;;;;6.97;1.35;;;12.60;99.90;;;;;;4991599;28;20089;-73
2023/04/12 15:05:07;;;;;;;6.88;1.70;;;12.60;99.90;;;;;;4970785;28;20106;-73
2023/04/12 15:07:33;;;;;;;13.32;2.40;;;12.60;99.90;;;;;;4973922;28;20042;-73
2023/04/12 15:09:59;;;;;;;10.82;2.60;;;12.60;99.90;;;;;;4967579;28;20062;-73
2023/04/12 15:12:26;;;;;;;9.80;2.60;;;12.60;99.90;;;;;;4978493;28;20046;-73
2023/04/12 15:14:52;;;;;;;8.27;1.90;;;12.50;99.90;;;;;;4972291;28;20494;-73
2023/04/12 15:17:19;;;;;;;11.75;3.25;;;12.50;99.90;;;;;;4985309;28;20057;-73
2023/04/12 15:19:45;;;;;;;14.05;2.45;;;12.40;99.90;;;;;;4970240;28;20034;-73
2023/04/12 15:22:11;;;;;;;11.55;2.80;;;12.30;99.90;;;;;;4970733;28;20047;-73
2023/04/12 15:24:37;;;;;;;9.88;2.55;;;12.20;99.90;;;;;;4972082;28;20043;-73
2023/04/12 15:27:04;;;;;;;12.13;2.90;;;12.10;99.90;;;;;;4964533;28;20038;-73
2023/04/12 15:29:30;;;;;;;10.30;2.60;;;12.00;99.90;;;;;;4971138;28;20129;-73
2023/04/12 15:31:56;;;;;;;13.20;2.70;;;11.90;99.90;;;;;;4957593;28;20046;-73
2023/04/12 15:34:24;;;;;;;13.70;2.83;;;11.80;99.90;;;;;;4970383;28;20042;-73
2023/04/12 15:36:50;;;;;;;10.88;2.80;;;11.80;99.90;;;;;;4983011;28;20038;-73
2023/04/12 15:39:17;;;;;;;13.38;2.22;;;11.70;99.90;;;;;;4965271;28;20096;-73
2023/04/12 15:41:43;;;;;;;11.32;2.83;;;11.60;99.90;;;;;;4957040;28;20540;-73
2023/04/12 15:44:12;;;;;;;8.95;2.30;;;11.60;99.90;;;;;;4971234;28;20031;-73
2023/04/12 15:46:38;;;;;;;12.55;2.88;;;11.60;99.90;;;;;;4972829;28;20039;-73
2023/04/12 15:49:05;;;;;;;13.13;2.83;;;11.50;99.90;;;;;;4966300;28;20038;-73
2023/04/12 15:51:31;;;;;;;9.77;2.15;;;11.50;99.90;;;;;;4974368;28;20585;-73
2023/04/12 15:53:57;;;;;;;13.07;3.08;;;11.50;99.90;;;;;;4968659;28;20081;-73
2023/04/12 15:56:24;;;;;;;13.45;2.83;;;11.40;99.90;;;;;;4973579;28;20042;-73
2023/04/12 15:58:50;;;;;;;10.45;2.22;;;11.40;99.90;;;;;;4973166;28;20034;-73
2023/04/12 16:01:17;;;;;;;10.38;2.35;;;11.30;99.90;;;;;;4977935;28;20125;-73